Terminal Aerodrome Forecast
Issued by NWS

Home | Current Version | Previous Version | Text Only | Print | Product List | Glossary On
Versions: 1 2 3 4 5 6 7 8 9 10 11 12 13 14 15 16 17 18
000
FTUS44 KCRP 291132
TAFALI
TAF
KALI 291132Z 2912/3012 07009KT 6SM BR OVC025
      TEMPO 2912/2914 5SM BR
     FM291500 14012G18KT P6SM BKN030
     FM292100 13015G25KT P6SM VCTS SCT040CB BKN250
     FM300200 14012KT P6SM SCT020
      TEMPO 3004/3006 BKN020
     FM300600 14006KT P6SM BKN015=

USA.gov is the U.S. government's official web portal to all federal, state and local government web resources and services.